Buckland, AK

10:03 AM AKST on February 10, 2016 (GMT -0900)
Buckland

Weather History for PABL - August, 2013

Change the Weather History Date:

Thursday, August 22, 2013

  Actual Average (PASK) Record (PASK)
Temperature  
Mean Temperature 50 °F -  
Max Temperature 57 °F 55 °F 71 °F (2004)
Min Temperature 42 °F 43 °F 35 °F (1996)
Degree Days  
Heating Degree Days 16    
Moisture  
Dew Point 44 °F    
Average Humidity 79    
Maximum Humidity 94    
Minimum Humidity 62    
Precipitation  
Precipitation 0.24 in - - ()
Sea Level Pressure  
Sea Level Pressure 29.61 in    
Wind  
Wind Speed 6 mph (SSE)    
Max Wind Speed 13 mph    
Max Gust Speed -    
Visibility 10 miles    
Events      
Averages and records for this station are not official NWS values.
T = Trace of Precipitation, MM = Missing Value Source: NWS Daily Summary

Daily Weather History Graph

Daily Weather History Graph

Search for Another Location

Airport or City:

Trip Planner

Search our weather history database for the weather conditions in past years. The results will help you decide how hot, cold, wet, or windy it might be!

Date:

Astronomy

Aug. 22, 2013 Rise Set
Actual Time 6:48 AM AKDT 10:43 PM AKDT
Civil Twilight 5:42 AM AKDT 11:48 PM AKDT
Nautical Twilight 3:29 AM AKDT 1:50 AM AKDT
Astronomical Twilight Sun does not rise Sun does not rise
Moon 10:06 PM AKDT (8/22) 10:06 AM AKDT (8/22)
Length of Visible Light 18h 06m
Length of Day
15h 55m
Waning Gibbous, 96% of the Moon is Illuminated
Aug 22
Waning Gibbous
Aug 28
Last Quarter
Sep 5
New
Sep 12
First Quarter
Sep 19
Full

Hourly Weather History & Observations

Time (AKDT) Temp. Windchill Dew Point Humidity Pressure Visibility Wind Dir Wind Speed Gust Speed Precip Events Conditions
12:16 AM 53.6 °F - 42.8 °F 67% 29.65 in 10.0 mi East 12.7 mph - N/A   Clear
12:36 AM 53.6 °F - 41.0 °F 62% 29.65 in 10.0 mi East 9.2 mph - N/A   Clear
12:56 AM 51.8 °F - 41.0 °F 67% 29.65 in 10.0 mi East 11.5 mph - N/A   Clear
1:16 AM 50.0 °F - 41.0 °F 71% 29.66 in 10.0 mi South 4.6 mph - N/A   Clear
1:36 AM 51.8 °F - 41.0 °F 67% 29.66 in 10.0 mi SSE 4.6 mph - N/A   Clear
1:56 AM 51.8 °F - 41.0 °F 67% 29.67 in 10.0 mi SSW 6.9 mph - N/A   Mostly Cloudy
2:16 AM 50.0 °F - 41.0 °F 71% 29.66 in 10.0 mi SSE 4.6 mph - N/A   Overcast
2:36 AM 50.0 °F - 41.0 °F 71% 29.66 in 10.0 mi SSE 6.9 mph - N/A   Mostly Cloudy
2:56 AM 48.2 °F - 41.0 °F 76% 29.66 in 10.0 mi SSW 5.8 mph - N/A   Partly Cloudy
3:16 AM 48.2 °F - 41.0 °F 76% 29.66 in 10.0 mi SSW 4.6 mph - N/A   Partly Cloudy
3:36 AM 48.2 °F - 39.2 °F 71% 29.66 in 10.0 mi South 3.5 mph - N/A   Mostly Cloudy
3:56 AM 48.2 °F - 39.2 °F 71% 29.65 in 10.0 mi South 4.6 mph - N/A   Overcast
4:16 AM 48.2 °F - 39.2 °F 71% 29.64 in 10.0 mi SW 3.5 mph - N/A   Overcast
4:36 AM 48.2 °F - 41.0 °F 76% 29.64 in 10.0 mi SSW 4.6 mph - N/A   Overcast
4:56 AM 46.4 °F 43.5 °F 41.0 °F 81% 29.64 in 10.0 mi SW 5.8 mph - N/A   Overcast
5:16 AM 44.6 °F 40.7 °F 39.2 °F 81% 29.64 in 10.0 mi South 6.9 mph - N/A   Scattered Clouds
5:36 AM 44.6 °F 42.2 °F 39.2 °F 81% 29.64 in 10.0 mi South 4.6 mph - N/A   Clear
5:56 AM 42.8 °F 39.3 °F 37.4 °F 81% 29.64 in 10.0 mi South 5.8 mph - N/A   Clear
6:16 AM 42.8 °F 40.1 °F 37.4 °F 81% 29.63 in 10.0 mi South 4.6 mph - N/A   Scattered Clouds
6:36 AM 42.8 °F 40.1 °F 39.2 °F 87% 29.63 in 10.0 mi South 4.6 mph - N/A   Overcast
6:56 AM 42.8 °F 39.3 °F 39.2 °F 87% 29.63 in 10.0 mi South 5.8 mph - N/A   Overcast
7:16 AM 44.6 °F 40.7 °F 41.0 °F 87% 29.63 in 10.0 mi South 6.9 mph - N/A   Overcast
7:36 AM 44.6 °F 41.4 °F 39.2 °F 81% 29.63 in 10.0 mi South 5.8 mph - N/A   Overcast
7:56 AM 46.4 °F 44.3 °F 39.2 °F 76% 29.62 in 10.0 mi South 4.6 mph - N/A   Overcast
8:16 AM 46.4 °F 45.2 °F 42.8 °F 87% 29.63 in 10.0 mi South 3.5 mph - N/A   Overcast
8:36 AM 48.2 °F - 41.0 °F 76% 29.61 in 10.0 mi SSE 6.9 mph - N/A   Overcast
8:56 AM 50.0 °F - 41.0 °F 71% 29.61 in 10.0 mi South 5.8 mph - N/A   Mostly Cloudy
9:16 AM 48.2 °F - 41.0 °F 76% 29.61 in 10.0 mi South 4.6 mph - N/A   Mostly Cloudy
9:36 AM 50.0 °F - 41.0 °F 71% 29.61 in 10.0 mi South 5.8 mph - N/A   Overcast
9:56 AM 50.0 °F - 41.0 °F 71% 29.61 in 10.0 mi South 3.5 mph - N/A   Overcast
10:16 AM 51.8 °F - 42.8 °F 71% 29.60 in 10.0 mi South 4.6 mph - N/A   Overcast
10:36 AM 51.8 °F - 42.8 °F 71% 29.60 in 10.0 mi SSE 4.6 mph - N/A   Overcast
10:56 AM 51.8 °F - 42.8 °F 71% 29.60 in 10.0 mi Calm Calm - N/A   Overcast
11:16 AM 53.6 °F - 42.8 °F 67% 29.60 in 9.0 mi SSW 3.5 mph - N/A   Overcast
11:36 AM 53.6 °F - 42.8 °F 67% 29.59 in 8.0 mi South 4.6 mph - N/A   Overcast
11:56 AM 55.4 °F - 42.8 °F 63% 29.59 in 10.0 mi South 4.6 mph - N/A   Overcast
12:16 PM 55.4 °F - 42.8 °F 63% 29.59 in 10.0 mi SE 5.8 mph - N/A   Overcast
12:36 PM 57.2 °F - 44.6 °F 63% 29.59 in 10.0 mi SE 5.8 mph - N/A   Overcast
12:56 PM 57.2 °F - 44.6 °F 63% 29.59 in 10.0 mi SE 6.9 mph - N/A   Overcast
1:16 PM 57.2 °F - 44.6 °F 63% 29.58 in 10.0 mi SE 6.9 mph - N/A   Overcast
1:36 PM 57.2 °F - 44.6 °F 63% 29.58 in 10.0 mi SE 8.1 mph - N/A   Overcast
1:56 PM 55.4 °F - 46.4 °F 72% 29.58 in 10.0 mi SE 4.6 mph - N/A   Overcast
2:16 PM 55.4 °F - 48.2 °F 77% 29.57 in 10.0 mi East 4.6 mph - N/A   Overcast
2:36 PM 55.4 °F - 46.4 °F 72% 29.58 in 9.0 mi Calm Calm - N/A   Overcast
2:56 PM 53.6 °F - 48.2 °F 82% 29.59 in 10.0 mi West 3.5 mph - 0.02 in   Overcast
3:16 PM 53.6 °F - 50.0 °F 88% 29.59 in 10.0 mi WNW 3.5 mph - 0.03 in   Mostly Cloudy
3:36 PM 51.8 °F - 50.0 °F 94% 29.58 in 10.0 mi Calm Calm - 0.04 in   Overcast
3:56 PM 53.6 °F - 50.0 °F 88% 29.58 in 9.0 mi East 3.5 mph - 0.06 in   Overcast
4:16 PM 53.6 °F - 50.0 °F 88% 29.58 in 7.0 mi Calm Calm - 0.01 in   Overcast
4:36 PM 53.6 °F - 50.0 °F 88% 29.58 in 3.0 mi Calm Calm - 0.05 in   Overcast
4:56 PM 53.6 °F - 50.0 °F 88% 29.57 in 8.0 mi Calm Calm - 0.07 in   Overcast
5:16 PM 53.6 °F - 50.0 °F 88% 29.57 in 10.0 mi East 5.8 mph - N/A   Overcast
5:36 PM 53.6 °F - 50.0 °F 88% 29.57 in 10.0 mi East 6.9 mph - 0.01 in   Overcast
5:56 PM 53.6 °F - 50.0 °F 88% 29.57 in 10.0 mi ENE 6.9 mph - 0.02 in   Overcast
6:16 PM 53.6 °F - 50.0 °F 88% 29.56 in 10.0 mi East 5.8 mph - N/A   Overcast
6:36 PM 53.6 °F - 50.0 °F 88% 29.57 in 9.0 mi ENE 3.5 mph - 0.02 in   Overcast
6:56 PM 53.6 °F - 50.0 °F 88% 29.57 in 8.0 mi East 3.5 mph - 0.04 in   Overcast
7:16 PM 51.8 °F - 48.2 °F 88% 29.57 in 10.0 mi East 3.5 mph - 0.01 in   Overcast
7:36 PM 51.8 °F - 48.2 °F 88% 29.58 in 9.0 mi Calm Calm - 0.02 in   Overcast
7:56 PM 51.8 °F - 48.2 °F 88% 29.58 in 10.0 mi Calm Calm - 0.02 in   Overcast
8:16 PM 51.8 °F - 48.2 °F 88% 29.58 in 10.0 mi Calm Calm - 0.01 in   Overcast
8:36 PM 51.8 °F - 48.2 °F 88% 29.58 in 10.0 mi NNW 4.6 mph - 0.01 in   Overcast
8:56 PM 51.8 °F - 48.2 °F 88% 29.58 in 10.0 mi North 3.5 mph - 0.01 in   Overcast
9:16 PM 51.8 °F - 48.2 °F 88% 29.59 in 10.0 mi Calm Calm - N/A   Overcast
9:36 PM 51.8 °F - 46.4 °F 82% 29.59 in 10.0 mi Calm Calm - N/A   Overcast
9:56 PM 51.8 °F - 50.0 °F 94% 29.59 in 10.0 mi NNW 4.6 mph - N/A   Overcast
10:16 PM 51.8 °F - 50.0 °F 94% 29.60 in 10.0 mi NNW 3.5 mph - N/A   Mostly Cloudy
10:36 PM 51.8 °F - 48.2 °F 88% 29.60 in 10.0 mi NNW 4.6 mph - N/A   Overcast
10:56 PM 51.8 °F - 48.2 °F 88% 29.61 in 10.0 mi North 4.6 mph - N/A   Overcast
11:16 PM 51.8 °F - 48.2 °F 88% 29.61 in 10.0 mi NNW 3.5 mph - N/A   Overcast
11:36 PM 51.8 °F - 48.2 °F 88% 29.62 in 10.0 mi Calm Calm - N/A   Overcast
11:56 PM 51.8 °F - 48.2 °F 88% 29.62 in 10.0 mi NW 5.8 mph - N/A   Overcast